Time;durP1;ratioP1;P1;durP2;ratioP2;P2;SDS_P1;SDS_P2;PMS_P1;PMS_P2;Temp;Humidity;BMP_temperature;BMP_pressure;BME280_temperature;BME280_humidity;BME280_pressure;Samples;Min_cycle;Max_cycle;Signal;HPM_P1;HPM_P2
2023/06/09 00:01:20;;;;;;;1.17;1.17;;;;;;;;;;6215086;28;20269;-71
2023/06/09 00:04:26;;;;;;;1.20;1.20;;;;;;;;;;6214819;28;20292;-71
2023/06/09 00:07:33;;;;;;;1.35;1.25;;;;;;;;;;6214991;28;20296;-70
2023/06/09 00:10:38;;;;;;;1.45;1.10;;;;;;;;;;6221709;28;20296;-71
2023/06/09 00:13:45;;;;;;;1.38;1.27;;;;;;;;;;6239108;28;20303;-71
2023/06/09 00:16:51;;;;;;;1.38;1.30;;;;;;;;;;6223137;28;20285;-72
2023/06/09 00:20:01;;;;;;;2.05;1.10;;;;;;;;;;6214647;28;20301;-71
2023/06/09 00:23:07;;;;;;;1.30;1.30;;;;;;;;;;6214301;28;20530;-72
2023/06/09 00:26:13;;;;;;;1.42;1.30;;;;;;;;;;6215143;28;20274;-70
2023/06/09 00:29:22;;;;;;;1.23;1.23;;;;;;;;;;6214189;28;20308;-70
2023/06/09 00:32:28;;;;;;;1.13;1.13;;;;;;;;;;6214881;28;20277;-71
2023/06/09 00:35:33;;;;;;;1.40;1.40;;;;;;;;;;6212732;28;20480;-72
2023/06/09 00:38:39;;;;;;;1.40;1.30;;;;;;;;;;6212511;28;20297;-71
2023/06/09 00:41:44;;;;;;;1.15;1.15;;;;;;;;;;6213178;28;20273;-70
2023/06/09 00:44:51;;;;;;;1.23;1.23;;;;;;;;;;6212547;28;20292;-70
2023/06/09 00:47:58;;;;;;;1.23;1.08;;;;;;;;;;6214295;28;20274;-71
2023/06/09 00:51:03;;;;;;;1.40;1.30;;;;;;;;;;6213414;28;20305;-70
2023/06/09 00:54:10;;;;;;;1.30;1.30;;;;;;;;;;6213895;28;20301;-71
2023/06/09 00:57:18;;;;;;;1.30;1.30;;;;;;;;;;6212853;28;20592;-71
2023/06/09 01:00:27;;;;;;;2.70;1.67;;;;;;;;;;6213812;28;20296;-70
2023/06/09 01:03:32;;;;;;;1.30;1.30;;;;;;;;;;6235369;23;20298;-77
2023/06/09 01:06:45;;;;;;;1.17;1.17;;;;;;;;;;6261891;28;20263;-75
2023/06/09 01:09:55;;;;;;;1.23;1.23;;;;;;;;;;6261713;28;20295;-76
2023/06/09 01:13:04;;;;;;;1.30;1.30;;;;;;;;;;6251949;28;20268;-76
2023/06/09 01:16:19;;;;;;;1.40;1.30;;;;;;;;;;6236427;28;20288;-76
2023/06/09 01:19:33;;;;;;;1.50;1.40;;;;;;;;;;6237043;28;20296;-75
2023/06/09 01:22:45;;;;;;;3.30;1.40;;;;;;;;;;6260074;28;20264;-76
2023/06/09 01:25:52;;;;;;;1.10;1.10;;;;;;;;;;6261416;28;20305;-76
2023/06/09 01:28:58;;;;;;;1.20;1.20;;;;;;;;;;6261461;28;20295;-76
2023/06/09 01:32:05;;;;;;;1.63;1.13;;;;;;;;;;6260468;28;20268;-76
2023/06/09 01:35:11;;;;;;;1.40;1.40;;;;;;;;;;6259941;28;20296;-76
2023/06/09 01:38:18;;;;;;;1.40;1.33;;;;;;;;;;6259206;28;20280;-76
2023/06/09 01:41:26;;;;;;;1.30;1.30;;;;;;;;;;6261123;28;20271;-76
2023/06/09 01:44:32;;;;;;;1.38;1.38;;;;;;;;;;6259701;28;20291;-77
2023/06/09 01:47:37;;;;;;;1.20;1.20;;;;;;;;;;6261346;28;20275;-76
2023/06/09 01:50:49;;;;;;;2.70;1.30;;;;;;;;;;6260943;28;20391;-77
2023/06/09 01:54:00;;;;;;;1.33;1.23;;;;;;;;;;6260482;28;20329;-77
2023/06/09 01:57:08;;;;;;;1.20;1.20;;;;;;;;;;6260987;28;20277;-76
2023/06/09 02:00:15;;;;;;;1.30;1.30;;;;;;;;;;6258186;28;20304;-76
2023/06/09 02:03:22;;;;;;;2.38;1.30;;;;;;;;;;6259915;28;20335;-76
2023/06/09 02:06:27;;;;;;;1.20;1.20;;;;;;;;;;6260428;28;20555;-76
2023/06/09 02:09:34;;;;;;;1.30;1.30;;;;;;;;;;6258854;28;20299;-76
2023/06/09 02:12:41;;;;;;;1.48;1.48;;;;;;;;;;6260640;28;20280;-75
2023/06/09 02:15:47;;;;;;;1.70;1.60;;;;;;;;;;6258253;28;20291;-77
2023/06/09 02:18:53;;;;;;;1.52;1.40;;;;;;;;;;6259294;28;20303;-77
2023/06/09 02:21:58;;;;;;;1.20;1.20;;;;;;;;;;6258962;28;20293;-76
2023/06/09 02:25:04;;;;;;;1.20;1.20;;;;;;;;;;6259997;28;20545;-76
2023/06/09 02:28:12;;;;;;;1.38;1.38;;;;;;;;;;6259294;28;20268;-76
2023/06/09 02:31:20;;;;;;;1.38;1.38;;;;;;;;;;6258673;28;20269;-76
2023/06/09 02:34:27;;;;;;;1.15;1.15;;;;;;;;;;6258234;28;20311;-77
2023/06/09 02:37:32;;;;;;;1.20;1.20;;;;;;;;;;6258796;28;20544;-77
2023/06/09 02:40:37;;;;;;;1.20;1.20;;;;;;;;;;6259510;28;20295;-77
2023/06/09 02:43:45;;;;;;;1.50;1.50;;;;;;;;;;6259265;28;20434;-76
2023/06/09 02:46:51;;;;;;;1.80;1.23;;;;;;;;;;6264901;28;20264;-75
2023/06/09 02:49:56;;;;;;;1.27;1.27;;;;;;;;;;6258794;28;20300;-76
2023/06/09 02:53:01;;;;;;;1.25;1.25;;;;;;;;;;6258445;28;20268;-76
2023/06/09 02:56:11;;;;;;;1.50;1.50;;;;;;;;;;6257588;28;20283;-76
2023/06/09 02:59:25;;;;;;;1.25;1.20;;;;;;;;;;6257290;28;20625;-77
2023/06/09 03:02:32;;;;;;;1.50;1.50;;;;;;;;;;6256755;28;20271;-76
2023/06/09 03:05:40;;;;;;;1.42;1.42;;;;;;;;;;6256796;28;20304;-76
2023/06/09 03:08:48;;;;;;;1.27;1.27;;;;;;;;;;6257796;28;20299;-76
2023/06/09 03:11:54;;;;;;;2.05;1.48;;;;;;;;;;6258496;28;20385;-75
2023/06/09 03:15:02;;;;;;;2.30;1.40;;;;;;;;;;6257282;28;20296;-75
2023/06/09 03:18:07;;;;;;;1.30;1.30;;;;;;;;;;6257234;28;20560;-75
2023/06/09 03:21:16;;;;;;;1.30;1.30;;;;;;;;;;6257630;28;20267;-76
2023/06/09 03:24:22;;;;;;;1.30;1.30;;;;;;;;;;6257509;28;20304;-75
2023/06/09 03:27:27;;;;;;;1.30;1.30;;;;;;;;;;6257222;28;20268;-78
2023/06/09 03:30:33;;;;;;;1.60;1.60;;;;;;;;;;6257267;28;20379;-75
2023/06/09 03:33:39;;;;;;;1.23;1.23;;;;;;;;;;6257053;28;20395;-76
2023/06/09 03:36:45;;;;;;;1.40;1.40;;;;;;;;;;6250086;28;20349;-76
2023/06/09 03:39:51;;;;;;;1.70;1.65;;;;;;;;;;6249125;28;20250;-78
2023/06/09 03:43:01;;;;;;;1.30;1.30;;;;;;;;;;6249482;28;20284;-77
2023/06/09 03:46:07;;;;;;;3.30;1.42;;;;;;;;;;6233387;28;20445;-76
2023/06/09 03:49:13;;;;;;;1.45;1.45;;;;;;;;;;6232262;28;20494;-77
2023/06/09 03:52:19;;;;;;;1.25;1.25;;;;;;;;;;6249498;28;20268;-76
2023/06/09 03:55:25;;;;;;;1.55;1.40;;;;;;;;;;6233942;28;20300;-76
2023/06/09 03:58:33;;;;;;;1.35;1.35;;;;;;;;;;6232928;28;20308;-77
2023/06/09 04:01:40;;;;;;;1.65;1.48;;;;;;;;;;6232900;28;20470;-77
2023/06/09 04:04:48;;;;;;;1.75;1.75;;;;;;;;;;6248390;28;20292;-77
2023/06/09 04:07:53;;;;;;;1.40;1.40;;;;;;;;;;6233464;28;20268;-77
2023/06/09 04:10:59;;;;;;;1.52;1.52;;;;;;;;;;6233078;28;20280;-77
2023/06/09 04:14:04;;;;;;;1.60;1.50;;;;;;;;;;6255138;28;20300;-76
2023/06/09 04:17:12;;;;;;;2.05;1.60;;;;;;;;;;6258496;28;20434;-76
2023/06/09 04:20:22;;;;;;;1.63;1.52;;;;;;;;;;6257213;28;20295;-76
2023/06/09 04:23:29;;;;;;;1.30;1.30;;;;;;;;;;6256941;28;20308;-76
2023/06/09 04:26:37;;;;;;;1.33;1.33;;;;;;;;;;6262079;28;20273;-76
2023/06/09 04:29:45;;;;;;;1.40;1.40;;;;;;;;;;6261158;28;20303;-76
2023/06/09 04:32:53;;;;;;;1.65;1.55;;;;;;;;;;6262458;28;20268;-76
2023/06/09 04:35:58;;;;;;;1.95;1.38;;;;;;;;;;6261317;28;20427;-76
2023/06/09 04:39:05;;;;;;;1.88;1.77;;;;;;;;;;6262254;28;20295;-77
2023/06/09 04:42:12;;;;;;;1.10;1.10;;;;;;;;;;6262554;28;20267;-76
2023/06/09 04:45:20;;;;;;;1.38;1.30;;;;;;;;;;6260768;28;20291;-76
2023/06/09 04:48:29;;;;;;;1.40;1.40;;;;;;;;;;6260818;28;20312;-76
2023/06/09 04:51:41;;;;;;;2.47;1.60;;;;;;;;;;6262644;28;20279;-76
2023/06/09 04:54:51;;;;;;;1.48;1.48;;;;;;;;;;6260684;28;20304;-75
2023/06/09 04:57:57;;;;;;;3.28;1.50;;;;;;;;;;6260865;28;20267;-77
2023/06/09 05:01:03;;;;;;;3.03;1.50;;;;;;;;;;6261014;28;20291;-76
2023/06/09 05:04:10;;;;;;;1.50;1.50;;;;;;;;;;6259875;28;20314;-76
2023/06/09 05:07:16;;;;;;;1.67;1.60;;;;;;;;;;6262065;28;20268;-76
2023/06/09 05:10:21;;;;;;;1.40;1.40;;;;;;;;;;6261821;28;20488;-76
2023/06/09 05:13:29;;;;;;;1.38;1.38;;;;;;;;;;6259621;28;20288;-76
2023/06/09 05:16:35;;;;;;;1.30;1.30;;;;;;;;;;6260795;28;20260;-76
2023/06/09 05:19:44;;;;;;;1.50;1.50;;;;;;;;;;6260305;28;20484;-75
2023/06/09 05:22:51;;;;;;;;;;;;;;;;;;6260664;28;20121;-77
2023/06/09 05:25:57;;;;;;;;;;;;;;;;;;6259948;28;19987;-76
2023/06/09 05:29:01;;;;;;;;;;;;;;;;;;6261180;28;19987;-75
2023/06/09 05:32:07;;;;;;;;;;;;;;;;;;6262058;28;19995;-75
2023/06/09 05:35:13;;;;;;;1.50;1.40;;;;;;;;;;6260164;28;20278;-75
2023/06/09 05:38:19;;;;;;;1.58;1.20;;;;;;;;;;6259514;28;20295;-76
2023/06/09 05:41:25;;;;;;;1.20;1.20;;;;;;;;;;6261176;28;20292;-76
2023/06/09 05:44:30;;;;;;;5.68;1.50;;;;;;;;;;6260906;28;20506;-76
2023/06/09 05:47:35;;;;;;;1.60;1.50;;;;;;;;;;6260937;28;20288;-76
2023/06/09 05:50:42;;;;;;;1.30;1.30;;;;;;;;;;6261428;28;20308;-77
2023/06/09 05:53:47;;;;;;;1.35;1.35;;;;;;;;;;6260368;28;20288;-77
2023/06/09 05:56:53;;;;;;;1.63;1.25;;;;;;;;;;6261020;28;20264;-77
2023/06/09 05:59:58;;;;;;;1.50;1.50;;;;;;;;;;6260752;28;20296;-76
2023/06/09 06:03:06;;;;;;;1.30;1.30;;;;;;;;;;6259783;28;20276;-75
2023/06/09 06:06:15;;;;;;;1.30;1.25;;;;;;;;;;6260724;28;20276;-75
2023/06/09 06:09:20;;;;;;;1.40;1.17;;;;;;;;;;6260112;28;20591;-76
2023/06/09 06:12:25;;;;;;;1.33;1.33;;;;;;;;;;6260486;28;20268;-76
2023/06/09 06:15:30;;;;;;;2.78;1.52;;;;;;;;;;6260196;28;20314;-76
2023/06/09 06:18:35;;;;;;;1.35;1.00;;;;;;;;;;6259836;28;20603;-76
2023/06/09 06:21:43;;;;;;;1.38;1.38;;;;;;;;;;6260086;28;20288;-77
2023/06/09 06:24:48;;;;;;;1.02;1.02;;;;;;;;;;6258834;28;20339;-76
2023/06/09 06:27:53;;;;;;;2.88;1.10;;;;;;;;;;6260311;28;20267;-76
2023/06/09 06:30:58;;;;;;;2.33;1.40;;;;;;;;;;6259150;28;20454;-76
2023/06/09 06:34:04;;;;;;;1.30;1.30;;;;;;;;;;6260195;28;20375;-76
2023/06/09 06:37:14;;;;;;;1.23;1.23;;;;;;;;;;6260624;28;20268;-76
2023/06/09 06:40:19;;;;;;;1.20;1.20;;;;;;;;;;6259968;28;20503;-76
2023/06/09 06:43:24;;;;;;;1.20;1.10;;;;;;;;;;6260018;28;20292;-75
2023/06/09 06:46:37;;;;;;;1.45;1.40;;;;;;;;;;6258763;28;20429;-76
2023/06/09 06:49:42;;;;;;;1.25;1.25;;;;;;;;;;6260211;28;20299;-75
2023/06/09 06:52:49;;;;;;;1.45;1.30;;;;;;;;;;6259633;28;20462;-78
2023/06/09 06:55:54;;;;;;;1.30;1.30;;;;;;;;;;6259908;28;20604;-76
2023/06/09 06:59:00;;;;;;;2.42;1.33;;;;;;;;;;6259778;28;20422;-75
2023/06/09 07:02:05;;;;;;;2.40;1.15;;;;;;;;;;6259901;28;20287;-76
2023/06/09 07:05:11;;;;;;;3.70;1.20;;;;;;;;;;6259134;28;20643;-77
2023/06/09 07:08:18;;;;;;;1.65;1.33;;;;;;;;;;6259744;28;20307;-77
2023/06/09 07:11:24;;;;;;;1.30;1.30;;;;;;;;;;6259932;28;20279;-77
2023/06/09 07:14:31;;;;;;;1.50;1.40;;;;;;;;;;6259924;28;20362;-77
2023/06/09 07:17:36;;;;;;;2.65;1.20;;;;;;;;;;6259951;28;20264;-76
2023/06/09 07:20:41;;;;;;;1.50;1.50;;;;;;;;;;6259394;28;20575;-77
2023/06/09 07:23:48;;;;;;;1.77;1.17;;;;;;;;;;6258962;28;20296;-77
2023/06/09 07:26:53;;;;;;;1.30;1.20;;;;;;;;;;6260029;28;20268;-76
2023/06/09 07:29:58;;;;;;;1.40;1.30;;;;;;;;;;6259141;28;20291;-76
2023/06/09 07:33:05;;;;;;;1.40;1.40;;;;;;;;;;6259339;28;20424;-76
2023/06/09 07:36:11;;;;;;;1.63;1.15;;;;;;;;;;6259586;28;20454;-76
2023/06/09 07:39:18;;;;;;;2.13;1.38;;;;;;;;;;6257743;28;20295;-76
2023/06/09 07:42:24;;;;;;;1.58;1.10;;;;;;;;;;6259168;28;20610;-77
2023/06/09 07:45:30;;;;;;;1.13;1.13;;;;;;;;;;6258999;28;20295;-76
2023/06/09 07:48:37;;;;;;;1.52;1.00;;;;;;;;;;6258642;28;20287;-77
2023/06/09 07:51:43;;;;;;;2.05;1.00;;;;;;;;;;6259174;28;20267;-77
2023/06/09 07:54:50;;;;;;;1.27;1.10;;;;;;;;;;6259257;28;20304;-77
2023/06/09 07:57:55;;;;;;;1.08;1.08;;;;;;;;;;6259826;28;20271;-76
2023/06/09 08:01:00;;;;;;;2.42;1.27;;;;;;;;;;6262394;28;20326;-76
2023/06/09 08:04:06;;;;;;;0.82;0.80;;;;;;;;;;6262038;28;20299;-76
2023/06/09 08:07:12;;;;;;;1.42;0.95;;;;;;;;;;6266090;28;20283;-75
2023/06/09 08:10:18;;;;;;;1.17;1.08;;;;;;;;;;6264650;28;20301;-76
2023/06/09 08:13:24;;;;;;;3.58;1.20;;;;;;;;;;6262516;28;20300;-76
2023/06/09 08:16:30;;;;;;;3.38;0.98;;;;;;;;;;6263714;28;20267;-76
2023/06/09 08:19:36;;;;;;;4.47;0.90;;;;;;;;;;6262731;28;20296;-76
2023/06/09 08:22:41;;;;;;;1.70;0.88;;;;;;;;;;6262019;28;20462;-77
2023/06/09 08:25:48;;;;;;;0.85;0.85;;;;;;;;;;6261478;28;20300;-76
2023/06/09 08:28:53;;;;;;;0.77;0.77;;;;;;;;;;6262786;28;20299;-76
2023/06/09 08:31:59;;;;;;;0.95;0.93;;;;;;;;;;6262688;28;20276;-78
2023/06/09 08:35:08;;;;;;;2.25;0.98;;;;;;;;;;6262400;28;20295;-76
2023/06/09 08:38:13;;;;;;;0.60;0.60;;;;;;;;;;6262255;28;20264;-78
2023/06/09 08:41:22;;;;;;;1.65;0.80;;;;;;;;;;6262846;28;20264;-76
2023/06/09 08:44:27;;;;;;;0.98;0.98;;;;;;;;;;6262387;28;20292;-77
2023/06/09 08:47:33;;;;;;;0.68;0.68;;;;;;;;;;6262490;28;20403;-77
2023/06/09 08:50:41;;;;;;;0.70;0.70;;;;;;;;;;6262521;28;20335;-77
2023/06/09 08:53:46;;;;;;;0.98;0.98;;;;;;;;;;6262547;28;20524;-77
2023/06/09 08:56:53;;;;;;;0.80;0.80;;;;;;;;;;6262993;28;20267;-77
2023/06/09 08:59:59;;;;;;;2.75;1.08;;;;;;;;;;6261833;28;20292;-78
2023/06/09 09:03:04;;;;;;;1.52;0.90;;;;;;;;;;6261681;28;20295;-79
2023/06/09 09:06:13;;;;;;;1.65;1.00;;;;;;;;;;6262493;28;20286;-75
2023/06/09 09:09:18;;;;;;;0.70;0.70;;;;;;;;;;6260074;28;20488;-76
2023/06/09 09:12:25;;;;;;;1.20;1.20;;;;;;;;;;6262494;28;20268;-76
2023/06/09 09:15:30;;;;;;;0.90;0.90;;;;;;;;;;6261903;28;20296;-77
2023/06/09 09:18:36;;;;;;;0.73;0.73;;;;;;;;;;6260431;28;20488;-77
2023/06/09 09:21:42;;;;;;;1.00;1.00;;;;;;;;;;6260843;28;20272;-77
2023/06/09 09:24:49;;;;;;;0.93;0.93;;;;;;;;;;6261903;28;20294;-77
2023/06/09 09:28:04;;;;;;;0.98;0.98;;;;;;;;;;6262174;28;20271;-77
2023/06/09 09:31:11;;;;;;;0.95;0.95;;;;;;;;;;6261169;28;20276;-78
2023/06/09 09:34:16;;;;;;;0.77;0.68;;;;;;;;;;6261623;28;20620;-77
2023/06/09 09:37:22;;;;;;;0.98;0.98;;;;;;;;;;6262024;28;20273;-77
2023/06/09 09:40:27;;;;;;;0.75;0.75;;;;;;;;;;6261203;28;20304;-77
2023/06/09 09:43:34;;;;;;;0.70;0.70;;;;;;;;;;6260635;28;20295;-77
2023/06/09 09:46:40;;;;;;;0.68;0.68;;;;;;;;;;6261696;28;20264;-77
2023/06/09 09:49:51;;;;;;;1.77;0.80;;;;;;;;;;6260592;28;20603;-77
2023/06/09 09:52:56;;;;;;;1.23;1.13;;;;;;;;;;6261587;28;20272;-77
2023/06/09 09:56:02;;;;;;;3.40;0.90;;;;;;;;;;6260665;28;20343;-77
2023/06/09 09:59:09;;;;;;;13.38;1.30;;;;;;;;;;6261076;28;20576;-78
2023/06/09 10:02:22;;;;;;;0.65;0.65;;;;;;;;;;6261194;28;20504;-78
2023/06/09 10:05:32;;;;;;;0.95;0.70;;;;;;;;;;6260256;28;20296;-78
2023/06/09 10:08:40;;;;;;;0.70;0.70;;;;;;;;;;6260342;28;20432;-77
2023/06/09 10:11:46;;;;;;;3.70;1.25;;;;;;;;;;6260964;28;20268;-78
2023/06/09 10:14:53;;;;;;;0.73;0.73;;;;;;;;;;6259919;28;20599;-77
2023/06/09 10:18:00;;;;;;;3.30;0.90;;;;;;;;;;6259710;28;20556;-76
2023/06/09 10:21:05;;;;;;;0.80;0.80;;;;;;;;;;6259542;28;20264;-77
2023/06/09 10:24:10;;;;;;;3.28;0.80;;;;;;;;;;6259659;28;20592;-77
2023/06/09 10:27:16;;;;;;;0.68;0.68;;;;;;;;;;6260306;28;20264;-77
2023/06/09 10:30:23;;;;;;;0.90;0.90;;;;;;;;;;6259868;28;20330;-77
2023/06/09 10:33:31;;;;;;;5.15;1.30;;;;;;;;;;6259847;28;20316;-77
2023/06/09 10:36:37;;;;;;;1.30;0.85;;;;;;;;;;6260124;28;20328;-80
2023/06/09 10:39:51;;;;;;;0.65;0.60;;;;;;;;;;6260277;28;20366;-77
2023/06/09 10:43:13;;;;;;;0.85;0.65;;;;;;;;;;6260685;28;20284;-76
2023/06/09 10:46:40;;;;;;;0.73;0.73;;;;;;;;;;6259047;28;20273;-77
2023/06/09 10:49:47;;;;;;;0.43;0.43;;;;;;;;;;6259695;28;20304;-76
2023/06/09 10:52:54;;;;;;;0.50;0.50;;;;;;;;;;6260296;28;20276;-77
2023/06/09 10:56:32;;;;;;;0.90;0.90;;;;;;;;;;6261452;28;20264;-77
2023/06/09 11:00:13;;;;;;;0.68;0.68;;;;;;;;;;6258656;28;20295;-78
2023/06/09 11:03:32;;;;;;;0.80;0.80;;;;;;;;;;6258166;28;20291;-78
2023/06/09 11:07:11;;;;;;;0.63;0.63;;;;;;;;;;6259898;28;20304;-78
2023/06/09 11:10:27;;;;;;;0.70;0.70;;;;;;;;;;6259058;28;20375;-76
2023/06/09 11:13:42;;;;;;;1.10;0.80;;;;;;;;;;6258959;28;20291;-76
2023/06/09 11:17:15;;;;;;;0.73;0.73;;;;;;;;;;6259884;28;20263;-78
2023/06/09 11:20:23;;;;;;;0.88;0.88;;;;;;;;;;6259167;28;20295;-77
2023/06/09 11:23:29;;;;;;;1.55;0.80;;;;;;;;;;6259029;28;20292;-77
2023/06/09 11:26:37;;;;;;;0.70;0.70;;;;;;;;;;6259754;28;20260;-75
2023/06/09 11:29:42;;;;;;;0.80;0.70;;;;;;;;;;6259108;28;20300;-77
2023/06/09 11:32:48;;;;;;;1.33;0.90;;;;;;;;;;6261635;28;20268;-75
2023/06/09 11:35:55;;;;;;;1.00;1.00;;;;;;;;;;6264360;28;20291;-76
2023/06/09 11:39:07;;;;;;;0.85;0.85;;;;;;;;;;6263775;28;20575;-76
2023/06/09 11:42:13;;;;;;;1.55;0.70;;;;;;;;;;6264406;28;20264;-75
2023/06/09 11:45:18;;;;;;;0.70;0.70;;;;;;;;;;6264049;28;20611;-75
2023/06/09 11:48:23;;;;;;;0.85;0.85;;;;;;;;;;6264265;28;20299;-77
2023/06/09 11:51:30;;;;;;;1.17;0.70;;;;;;;;;;6264480;28;20260;-76
2023/06/09 11:54:45;;;;;;;1.08;1.08;;;;;;;;;;6263435;28;20291;-76
2023/06/09 11:57:51;;;;;;;0.75;0.75;;;;;;;;;;6264253;28;20272;-76
2023/06/09 12:00:56;;;;;;;0.98;0.98;;;;;;;;;;6263935;28;20305;-76
2023/06/09 12:04:05;;;;;;;1.48;0.75;;;;;;;;;;6263355;28;20497;-76
2023/06/09 12:07:19;;;;;;;0.88;0.88;;;;;;;;;;6264465;28;20272;-76
2023/06/09 12:10:27;;;;;;;1.20;0.90;;;;;;;;;;6265728;28;20291;-75
2023/06/09 12:13:46;;;;;;;0.80;0.80;;;;;;;;;;6266405;28;20301;-75
2023/06/09 12:16:52;;;;;;;1.85;0.80;;;;;;;;;;6266836;28;20272;-75
2023/06/09 12:20:19;;;;;;;0.80;0.80;;;;;;;;;;6263747;28;20292;-76
2023/06/09 12:23:29;;;;;;;0.70;0.70;;;;;;;;;;6263255;28;20295;-76
2023/06/09 12:26:39;;;;;;;0.77;0.77;;;;;;;;;;6261802;28;20276;-77
2023/06/09 12:29:45;;;;;;;0.90;0.77;;;;;;;;;;6262760;28;20295;-77
2023/06/09 12:32:51;;;;;;;2.10;0.88;;;;;;;;;;6266957;28;20267;-77
2023/06/09 12:36:05;;;;;;;0.90;0.90;;;;;;;;;;6263750;28;20312;-75
2023/06/09 12:39:22;;;;;;;0.98;0.80;;;;;;;;;;6261761;28;20299;-77
2023/06/09 12:42:27;;;;;;;0.60;0.60;;;;;;;;;;6263465;28;20267;-76
2023/06/09 12:45:34;;;;;;;1.80;0.80;;;;;;;;;;6260295;28;20295;-77
2023/06/09 12:48:57;;;;;;;0.90;0.90;;;;;;;;;;6262636;28;20288;-77
2023/06/09 12:52:02;;;;;;;0.80;0.80;;;;;;;;;;6263052;28;20276;-76
2023/06/09 12:55:10;;;;;;;0.68;0.68;;;;;;;;;;6262192;28;20384;-76
2023/06/09 12:58:16;;;;;;;0.70;0.70;;;;;;;;;;6260544;28;20463;-75
2023/06/09 13:01:22;;;;;;;1.42;0.68;;;;;;;;;;6262563;28;20271;-75
2023/06/09 13:04:27;;;;;;;0.60;0.60;;;;;;;;;;6260075;28;20410;-76
2023/06/09 13:07:33;;;;;;;1.50;0.70;;;;;;;;;;6262648;28;20272;-75
2023/06/09 13:10:39;;;;;;;1.02;1.02;;;;;;;;;;6261864;28;20296;-75
2023/06/09 13:13:45;;;;;;;0.80;0.80;;;;;;;;;;6261889;28;20462;-76
2023/06/09 13:16:51;;;;;;;0.82;0.82;;;;;;;;;;6261978;28;20265;-76
2023/06/09 13:19:56;;;;;;;0.60;0.60;;;;;;;;;;6261679;28;20299;-76
2023/06/09 13:23:01;;;;;;;0.60;0.60;;;;;;;;;;6261903;28;20264;-75
2023/06/09 13:26:07;;;;;;;1.65;0.70;;;;;;;;;;6261820;28;20288;-75
2023/06/09 13:29:14;;;;;;;0.80;0.80;;;;;;;;;;6262615;28;20295;-77
2023/06/09 13:32:19;;;;;;;0.98;0.63;;;;;;;;;;6261405;28;20276;-77
2023/06/09 13:35:26;;;;;;;0.75;0.75;;;;;;;;;;6259551;28;20486;-77
2023/06/09 13:38:31;;;;;;;0.90;0.90;;;;;;;;;;6261048;28;20288;-77
2023/06/09 13:41:38;;;;;;;0.85;0.85;;;;;;;;;;6261022;28;20576;-77
2023/06/09 13:44:43;;;;;;;1.95;0.63;;;;;;;;;;6261254;28;20311;-76
2023/06/09 13:47:48;;;;;;;;;;;;;;;;;;6261521;28;20113;-76
2023/06/09 13:50:54;;;;;;;0.80;0.80;;;;;;;;;;6260483;28;20277;-77
2023/06/09 13:53:59;;;;;;;1.50;0.70;;;;;;;;;;6260157;28;20300;-77
2023/06/09 13:57:06;;;;;;;1.95;1.10;;;;;;;;;;6260389;28;20402;-76
2023/06/09 14:00:16;;;;;;;1.00;1.00;;;;;;;;;;6260470;28;20299;-76
2023/06/09 14:03:21;;;;;;;1.33;1.20;;;;;;;;;;6260161;28;20344;-76
2023/06/09 14:06:26;;;;;;;1.50;1.50;;;;;;;;;;6260902;28;20283;-77
2023/06/09 14:09:32;;;;;;;1.40;1.40;;;;;;;;;;6260354;28;20291;-78
2023/06/09 14:12:39;;;;;;;2.50;2.50;;;;;;;;;;6260805;28;20269;-76
2023/06/09 14:15:44;;;;;;;2.00;2.00;;;;;;;;;;6260065;28;20312;-77
2023/06/09 14:18:50;;;;;;;1.33;0.90;;;;;;;;;;6260278;28;20472;-77
2023/06/09 14:21:55;;;;;;;1.00;1.00;;;;;;;;;;6260264;28;20351;-77
2023/06/09 14:25:01;;;;;;;1.30;1.30;;;;;;;;;;6259999;28;20292;-77
2023/06/09 14:28:07;;;;;;;2.20;2.20;;;;;;;;;;6259251;28;20264;-77
2023/06/09 14:31:12;;;;;;;3.30;3.10;;;;;;;;;;6260430;28;20276;-77
2023/06/09 14:34:18;;;;;;;1.90;1.90;;;;;;;;;;6260157;28;20484;-77
2023/06/09 14:37:23;;;;;;;1.58;1.58;;;;;;;;;;6260422;28;20267;-77
2023/06/09 14:40:30;;;;;;;3.92;1.65;;;;;;;;;;6259808;28;20629;-76
2023/06/09 14:43:38;;;;;;;1.20;0.80;;;;;;;;;;6259672;28;20291;-77
2023/06/09 14:46:43;;;;;;;2.35;1.20;;;;;;;;;;6260394;28;20291;-76
2023/06/09 14:49:48;;;;;;;1.50;1.40;;;;;;;;;;6259501;28;20295;-77
2023/06/09 14:52:56;;;;;;;0.80;0.80;;;;;;;;;;6259786;28;20279;-77
2023/06/09 14:56:02;;;;;;;2.70;1.05;;;;;;;;;;6258717;28;20272;-77
2023/06/09 14:59:08;;;;;;;3.75;0.82;;;;;;;;;;6259242;28;20296;-76
2023/06/09 15:02:13;;;;;;;1.00;1.00;;;;;;;;;;6259466;28;20461;-76
2023/06/09 15:05:20;;;;;;;4.22;0.90;;;;;;;;;;6259302;28;20304;-77
2023/06/09 15:08:25;;;;;;;2.92;2.90;;;;;;;;;;6259011;28;20287;-78
2023/06/09 15:11:30;;;;;;;4.13;2.17;;;;;;;;;;6259427;28;20268;-78
2023/06/09 15:14:38;;;;;;;2.53;2.42;;;;;;;;;;6258782;28;20367;-79
2023/06/09 15:17:43;;;;;;;1.27;1.27;;;;;;;;;;6259893;28;20275;-78
2023/06/09 15:20:49;;;;;;;1.30;1.20;;;;;;;;;;6259198;28;20299;-77
2023/06/09 15:23:54;;;;;;;2.60;2.60;;;;;;;;;;6258669;28;20296;-78
2023/06/09 15:26:59;;;;;;;3.50;3.40;;;;;;;;;;6260186;28;20284;-79
2023/06/09 15:30:07;;;;;;;1.40;1.40;;;;;;;;;;6259118;28;20599;-79
2023/06/09 15:33:13;;;;;;;4.80;2.40;;;;;;;;;;6259193;28;20267;-79
2023/06/09 15:36:18;;;;;;;1.10;1.10;;;;;;;;;;6258986;28;20272;-78
2023/06/09 15:39:24;;;;;;;1.05;1.05;;;;;;;;;;6258690;28;20612;-78
2023/06/09 15:42:29;;;;;;;0.88;0.88;;;;;;;;;;6258877;28;20269;-75
2023/06/09 15:45:40;;;;;;;0.80;0.80;;;;;;;;;;6258504;28;20303;-74
2023/06/09 15:48:45;;;;;;;0.80;0.80;;;;;;;;;;6257190;28;20299;-77
2023/06/09 15:51:50;;;;;;;0.93;0.93;;;;;;;;;;6257658;28;20489;-74
2023/06/09 15:54:56;;;;;;;1.75;1.00;;;;;;;;;;6258646;28;20331;-76
2023/06/09 15:58:03;;;;;;;1.70;0.93;;;;;;;;;;6258572;28;20271;-76
2023/06/09 16:01:10;;;;;;;4.00;1.95;;;;;;;;;;6259060;28;20451;-78
2023/06/09 16:04:15;;;;;;;1.00;1.00;;;;;;;;;;6258170;28;20303;-76
2023/06/09 16:07:21;;;;;;;3.63;0.90;;;;;;;;;;6258644;28;20284;-77
2023/06/09 16:10:26;;;;;;;0.90;0.90;;;;;;;;;;6257518;28;20287;-77
2023/06/09 16:13:31;;;;;;;0.90;0.90;;;;;;;;;;6258703;28;20304;-77
2023/06/09 16:16:38;;;;;;;1.65;0.90;;;;;;;;;;6257124;28;20448;-76
2023/06/09 16:19:43;;;;;;;1.38;0.90;;;;;;;;;;6258751;28;20299;-76
2023/06/09 16:22:48;;;;;;;1.00;1.00;;;;;;;;;;6263114;28;20272;-77
2023/06/09 16:25:53;;;;;;;0.80;0.80;;;;;;;;;;6262651;28;20528;-77
2023/06/09 16:28:59;;;;;;;1.55;0.80;;;;;;;;;;6262981;28;20296;-76
2023/06/09 16:32:06;;;;;;;0.73;0.73;;;;;;;;;;6263359;28;20271;-76
2023/06/09 16:35:11;;;;;;;2.65;0.90;;;;;;;;;;6262698;28;20292;-75
2023/06/09 16:38:16;;;;;;;4.50;1.00;;;;;;;;;;6262530;28;20272;-76
2023/06/09 16:41:22;;;;;;;2.70;0.63;;;;;;;;;;6263431;28;20409;-76
2023/06/09 16:44:27;;;;;;;1.35;0.93;;;;;;;;;;6261968;28;20295;-77
2023/06/09 16:47:34;;;;;;;2.47;0.80;;;;;;;;;;6262099;28;20291;-76
2023/06/09 16:50:39;;;;;;;1.27;0.90;;;;;;;;;;6262250;28;20287;-75
2023/06/09 16:53:44;;;;;;;1.33;0.60;;;;;;;;;;6262775;28;20348;-75
2023/06/09 16:56:49;;;;;;;0.90;0.90;;;;;;;;;;6262961;28;20267;-76
2023/06/09 16:59:55;;;;;;;1.65;0.90;;;;;;;;;;6262391;28;20480;-77
2023/06/09 17:03:02;;;;;;;1.02;0.82;;;;;;;;;;6262252;28;20275;-77
2023/06/09 17:06:08;;;;;;;1.02;1.02;;;;;;;;;;6238278;28;20272;-77
2023/06/09 17:09:14;;;;;;;1.08;1.08;;;;;;;;;;6235930;28;20296;-78
2023/06/09 17:12:20;;;;;;;1.00;1.00;;;;;;;;;;6236089;28;20470;-77
2023/06/09 17:15:25;;;;;;;1.00;1.00;;;;;;;;;;6237263;28;20309;-77
2023/06/09 17:18:32;;;;;;;2.90;0.80;;;;;;;;;;6235750;28;20312;-76
2023/06/09 17:21:37;;;;;;;0.77;0.77;;;;;;;;;;6237348;28;20273;-75
2023/06/09 17:24:43;;;;;;;0.80;0.80;;;;;;;;;;6236838;28;20297;-75
2023/06/09 17:27:48;;;;;;;0.82;0.82;;;;;;;;;;6237843;28;20600;-76
2023/06/09 17:30:53;;;;;;;1.98;0.90;;;;;;;;;;6237239;28;20296;-76
2023/06/09 17:34:00;;;;;;;0.80;0.80;;;;;;;;;;6238197;28;20296;-76
2023/06/09 17:37:05;;;;;;;2.75;0.77;;;;;;;;;;6238130;28;20272;-76
2023/06/09 17:40:12;;;;;;;0.90;0.90;;;;;;;;;;6236900;28;20304;-76
2023/06/09 17:43:18;;;;;;;1.55;1.08;;;;;;;;;;6240541;28;21981;-76
2023/06/09 17:46:24;;;;;;;1.50;1.40;;;;;;;;;;6238069;28;20277;-76
2023/06/09 17:49:32;;;;;;;1.73;1.15;;;;;;;;;;6237771;28;20300;-76
2023/06/09 17:52:37;;;;;;;0.93;0.93;;;;;;;;;;6237933;28;20285;-74
2023/06/09 17:55:43;;;;;;;0.68;0.68;;;;;;;;;;6236491;28;20354;-74
2023/06/09 17:58:48;;;;;;;0.90;0.90;;;;;;;;;;6238358;28;20296;-76
2023/06/09 18:01:53;;;;;;;0.80;0.80;;;;;;;;;;6241567;28;20272;-76
2023/06/09 18:05:00;;;;;;;0.88;0.88;;;;;;;;;;6254550;28;20303;-76
2023/06/09 18:08:05;;;;;;;1.20;0.80;;;;;;;;;;6262695;28;20473;-77
2023/06/09 18:11:12;;;;;;;0.80;0.80;;;;;;;;;;6265456;28;20260;-76
2023/06/09 18:14:18;;;;;;;1.70;0.90;;;;;;;;;;6263640;28;20304;-76
2023/06/09 18:17:26;;;;;;;3.30;1.13;;;;;;;;;;6265515;28;20271;-77
2023/06/09 18:20:36;;;;;;;1.02;1.02;;;;;;;;;;6261922;28;20291;-76
2023/06/09 18:23:41;;;;;;;4.45;0.85;;;;;;;;;;6262839;28;20303;-77
2023/06/09 18:26:46;;;;;;;1.30;1.30;;;;;;;;;;6262213;28;20264;-77
2023/06/09 18:29:51;;;;;;;1.05;1.05;;;;;;;;;;6262127;28;20307;-77
2023/06/09 18:32:57;;;;;;;1.50;1.50;;;;;;;;;;6262718;28;20269;-76
2023/06/09 18:36:04;;;;;;;1.33;1.30;;;;;;;;;;6261214;28;20267;-75
2023/06/09 18:39:10;;;;;;;2.00;1.00;;;;;;;;;;6260795;28;20462;-76
2023/06/09 18:42:16;;;;;;;1.05;0.80;;;;;;;;;;6261177;28;20287;-76
2023/06/09 18:45:21;;;;;;;1.05;1.00;;;;;;;;;;6261075;28;20620;-76